createdAt,value
2023-11-30T00:01:51.534Z,99376.38
2023-11-30T00:04:19.634Z,99375.41
2023-11-30T00:06:47.611Z,99367.72
2023-11-30T00:09:15.654Z,99366.66
2023-11-30T00:11:43.851Z,99375.97
2023-11-30T00:14:11.868Z,99372.56
2023-11-30T00:16:40.149Z,99371.59
2023-11-30T00:19:09.601Z,99371.63
2023-11-30T00:21:37.575Z,99375.00
2023-11-30T00:24:06.353Z,99374.19
2023-11-30T00:26:34.507Z,99369.13
2023-11-30T00:29:02.514Z,99367.41
2023-11-30T00:31:30.663Z,99373.22
2023-11-30T00:33:58.741Z,99363.13
2023-11-30T00:36:28.224Z,99372.56
2023-11-30T00:38:56.228Z,99374.16
2023-11-30T00:41:24.357Z,99375.84
2023-11-30T00:43:52.378Z,99369.16
2023-11-30T00:46:20.742Z,99374.97
2023-11-30T00:48:49.022Z,99358.06
2023-11-30T00:51:17.201Z,99365.69
2023-11-30T00:53:46.662Z,99374.84
2023-11-30T00:56:14.672Z,99363.88
2023-11-30T00:58:42.653Z,99368.13
2023-11-30T01:01:10.802Z,99362.16
2023-11-30T01:03:38.896Z,99366.25
2023-11-30T01:06:07.332Z,99364.56
2023-11-30T01:08:35.536Z,99359.38
2023-11-30T01:11:05.838Z,99361.88
2023-11-30T01:13:34.094Z,99364.44
2023-11-30T01:16:02.060Z,99358.56
2023-11-30T01:18:30.218Z,99360.31
2023-11-30T01:20:59.030Z,99363.66
2023-11-30T01:23:27.076Z,99356.97
2023-11-30T01:25:54.939Z,99360.34
2023-11-30T01:28:24.260Z,99357.13
2023-11-30T01:30:52.223Z,99362.13
2023-11-30T01:33:20.264Z,99361.16
2023-11-30T01:35:49.267Z,99359.50
2023-11-30T01:38:17.356Z,99362.03
2023-11-30T01:40:45.565Z,99356.19
2023-11-30T01:43:13.670Z,99351.13
2023-11-30T01:45:43.042Z,99352.91
2023-11-30T01:48:12.067Z,99350.50
2023-11-30T01:50:40.170Z,99350.56
2023-11-30T01:53:08.585Z,99352.31
2023-11-30T01:55:36.856Z,99337.22
2023-11-30T01:58:05.525Z,99341.56
2023-11-30T02:00:33.977Z,99340.97
2023-11-30T02:03:03.667Z,99342.78
2023-11-30T02:05:31.592Z,99341.16
2023-11-30T02:07:59.902Z,99339.41
2023-11-30T02:10:27.834Z,99334.38
2023-11-30T02:12:55.770Z,99335.25
2023-11-30T02:15:24.898Z,99339.44
2023-11-30T02:17:52.887Z,99337.75
2023-11-30T02:20:22.146Z,99341.97
2023-11-30T02:22:51.669Z,99343.59
2023-11-30T02:25:19.521Z,99340.16
2023-11-30T02:27:47.466Z,99335.16
2023-11-30T02:30:15.531Z,99335.22
2023-11-30T02:32:43.589Z,99329.38
2023-11-30T02:35:11.591Z,99332.91
2023-11-30T02:37:39.640Z,99335.38
2023-11-30T02:40:10.354Z,99334.41
2023-11-30T02:42:38.362Z,99336.22
2023-11-30T02:45:07.117Z,99335.47
2023-11-30T02:47:34.961Z,99335.47
2023-11-30T02:50:02.941Z,99327.88
2023-11-30T02:52:30.908Z,99337.03
2023-11-30T02:54:58.827Z,99336.94
2023-11-30T02:57:28.162Z,99341.06
2023-11-30T02:59:56.199Z,99341.66
2023-11-30T03:02:25.736Z,99335.47
2023-11-30T03:04:54.665Z,99333.84
2023-11-30T03:07:22.567Z,99333.06
2023-11-30T03:09:50.402Z,99334.81
2023-11-30T03:12:18.362Z,99322.28
2023-11-30T03:14:48.349Z,99313.16
2023-11-30T03:17:16.505Z,99325.19
2023-11-30T03:19:44.585Z,99308.41
2023-11-30T03:22:12.790Z,99310.09
2023-11-30T03:24:40.761Z,99317.72
2023-11-30T03:27:10.511Z,99315.97
2023-11-30T03:29:38.396Z,99313.31
2023-11-30T03:32:07.749Z,99309.13
2023-11-30T03:34:35.647Z,99299.97
2023-11-30T03:37:03.595Z,99295.09
2023-11-30T03:39:31.504Z,99296.91
2023-11-30T03:41:59.382Z,99287.59
2023-11-30T03:44:27.201Z,99303.84
2023-11-30T03:46:55.094Z,99302.06
2023-11-30T03:49:24.290Z,99302.91
2023-11-30T03:51:52.502Z,99297.75
2023-11-30T03:54:20.434Z,99305.47
2023-11-30T03:56:48.251Z,99307.28
2023-11-30T03:59:16.187Z,99310.75
2023-11-30T04:01:44.217Z,99305.72
2023-11-30T04:04:12.130Z,99302.50
2023-11-30T04:06:41.672Z,99301.91
2023-11-30T04:09:09.841Z,99301.13
2023-11-30T04:11:37.822Z,99302.75
2023-11-30T04:14:07.399Z,99296.84
2023-11-30T04:16:35.791Z,99299.41
2023-11-30T04:19:03.746Z,99299.47
2023-11-30T04:21:32.357Z,99293.53
2023-11-30T04:24:01.611Z,99292.00
2023-11-30T04:26:29.565Z,99288.78
2023-11-30T04:28:57.389Z,99289.81
2023-11-30T04:31:25.375Z,99288.44
2023-11-30T04:33:53.208Z,99282.72
2023-11-30T04:36:21.069Z,99282.03
2023-11-30T04:38:48.929Z,99281.25
2023-11-30T04:41:18.198Z,99292.34
2023-11-30T04:43:46.049Z,99284.84
2023-11-30T04:46:14.024Z,99286.72
2023-11-30T04:48:42.562Z,99285.97
2023-11-30T04:51:10.964Z,99282.63
2023-11-30T04:53:39.033Z,99286.13
2023-11-30T04:56:07.835Z,99282.88
2023-11-30T04:58:37.088Z,99276.22
2023-11-30T05:01:05.182Z,99273.81
2023-11-30T05:03:33.206Z,99282.34
2023-11-30T05:06:01.237Z,99280.63
2023-11-30T05:08:29.238Z,99279.78
2023-11-30T05:10:57.431Z,99279.88
2023-11-30T05:13:25.410Z,99276.63
2023-11-30T05:15:54.699Z,99271.63
2023-11-30T05:18:22.654Z,99272.53
2023-11-30T05:20:50.634Z,99275.13
2023-11-30T05:23:18.688Z,99277.69
2023-11-30T05:25:47.367Z,99275.16
2023-11-30T05:28:15.342Z,99279.44
2023-11-30T05:30:43.400Z,99278.53
2023-11-30T05:33:13.717Z,99282.06
2023-11-30T05:35:41.627Z,99285.44
2023-11-30T05:38:09.626Z,99282.00
2023-11-30T05:40:37.541Z,99277.72
2023-11-30T05:43:06.396Z,99282.81
2023-11-30T05:45:34.365Z,99282.75
2023-11-30T05:48:02.487Z,99281.03
2023-11-30T05:50:32.150Z,99277.59
2023-11-30T05:53:00.190Z,99281.78
2023-11-30T05:55:28.099Z,99274.03
2023-11-30T05:57:57.300Z,99280.63
2023-11-30T06:00:25.559Z,99279.69
2023-11-30T06:02:54.238Z,99278.03
2023-11-30T06:05:22.232Z,99285.59
2023-11-30T06:07:51.587Z,99278.03
2023-11-30T06:10:19.475Z,99277.28
2023-11-30T06:12:47.507Z,99289.25
2023-11-30T06:15:15.625Z,99297.84
2023-11-30T06:17:43.737Z,99294.53
2023-11-30T06:20:13.624Z,99294.59
2023-11-30T06:22:41.758Z,99288.72
2023-11-30T06:25:11.723Z,99291.38
2023-11-30T06:27:39.762Z,99286.38
2023-11-30T06:30:09.699Z,99284.81
2023-11-30T06:32:38.012Z,99288.25
2023-11-30T06:35:06.724Z,99299.28
2023-11-30T06:37:34.676Z,99292.59
2023-11-30T06:40:02.614Z,99291.66
2023-11-30T06:42:33.334Z,99294.94
2023-11-30T06:45:01.379Z,99296.59
2023-11-30T06:47:29.412Z,99292.31
2023-11-30T06:49:57.268Z,99299.97
2023-11-30T06:52:26.169Z,99296.72
2023-11-30T06:54:54.773Z,99296.91
2023-11-30T06:57:22.762Z,99301.25
2023-11-30T06:59:52.029Z,99301.28
2023-11-30T07:02:20.081Z,99303.13
2023-11-30T07:04:48.097Z,99303.25
2023-11-30T07:07:24.224Z,99291.53
2023-11-30T07:09:59.366Z,99296.75
2023-11-30T07:12:27.358Z,99295.19
2023-11-30T07:14:56.954Z,99303.81
2023-11-30T07:17:25.258Z,99292.91
2023-11-30T07:19:54.552Z,99301.38
2023-11-30T07:22:26.307Z,99303.97
2023-11-30T07:24:54.557Z,99306.59
2023-11-30T07:27:23.211Z,99315.13
2023-11-30T07:29:53.066Z,99317.72
2023-11-30T07:32:23.564Z,99318.59
2023-11-30T07:34:51.787Z,99317.72
2023-11-30T07:37:23.188Z,99314.34
2023-11-30T07:39:51.402Z,99310.88
2023-11-30T07:42:29.316Z,99315.28
2023-11-30T07:45:03.108Z,99319.59
2023-11-30T07:47:32.837Z,99323.03
2023-11-30T07:50:01.205Z,99323.06
2023-11-30T07:52:30.493Z,99316.44
2023-11-30T07:54:58.428Z,99324.19
2023-11-30T07:57:26.430Z,99322.66
2023-11-30T07:59:54.386Z,99321.09
2023-11-30T08:02:22.542Z,99328.84
2023-11-30T08:04:51.803Z,99324.72
2023-11-30T08:07:21.987Z,99325.75
2023-11-30T08:09:49.972Z,99327.59
2023-11-30T08:12:17.928Z,99334.47
2023-11-30T08:14:45.924Z,99334.53
2023-11-30T08:17:13.913Z,99332.84
2023-11-30T08:19:41.734Z,99334.47
2023-11-30T08:22:14.183Z,99332.81
2023-11-30T08:24:44.244Z,99341.19
2023-11-30T08:27:12.421Z,99339.50
2023-11-30T08:29:40.700Z,99337.78
2023-11-30T08:32:09.349Z,99342.06
2023-11-30T08:34:37.215Z,99343.09
2023-11-30T08:37:05.453Z,99349.19
2023-11-30T08:39:35.788Z,99353.41
2023-11-30T08:42:03.851Z,99353.38
2023-11-30T08:44:31.767Z,99351.53
2023-11-30T08:47:00.119Z,99347.91
2023-11-30T08:49:28.649Z,99339.38
2023-11-30T08:51:56.601Z,99346.16
2023-11-30T08:54:25.347Z,99358.00
2023-11-30T08:56:54.616Z,99345.50
2023-11-30T08:59:22.806Z,99353.31
2023-11-30T09:01:51.371Z,99354.22
2023-11-30T09:04:19.438Z,99359.28
2023-11-30T09:06:47.756Z,99356.75
2023-11-30T09:09:15.712Z,99364.44
2023-11-30T09:11:46.006Z,99352.72
2023-11-30T09:14:15.341Z,99356.59
2023-11-30T09:16:43.956Z,99350.88
2023-11-30T09:19:12.002Z,99355.06
2023-11-30T09:21:39.932Z,99349.06
2023-11-30T09:24:08.869Z,99349.06
2023-11-30T09:26:37.359Z,99339.19
2023-11-30T09:29:05.331Z,99327.53
2023-11-30T09:31:34.806Z,99331.84
2023-11-30T09:34:03.139Z,99326.91
2023-11-30T09:36:32.125Z,99319.41
2023-11-30T09:39:00.224Z,99322.84
2023-11-30T09:41:28.106Z,99322.13
2023-11-30T09:43:57.707Z,99323.97
2023-11-30T09:46:25.770Z,99319.97
2023-11-30T09:48:55.287Z,99317.50
2023-11-30T09:51:23.514Z,99309.16
2023-11-30T09:53:51.840Z,99314.19
2023-11-30T09:56:20.181Z,99304.06
2023-11-30T09:58:47.993Z,99299.97
2023-11-30T10:01:16.141Z,99298.47
2023-11-30T10:03:44.228Z,99289.19
2023-11-30T10:06:14.460Z,99286.84
2023-11-30T10:08:42.470Z,99286.06
2023-11-30T10:11:11.203Z,99273.38
2023-11-30T10:13:39.354Z,99277.63
2023-11-30T10:16:08.693Z,99282.63
2023-11-30T10:18:36.847Z,99267.31
2023-11-30T10:21:05.708Z,99274.00
2023-11-30T10:23:35.213Z,99268.91
2023-11-30T10:26:04.296Z,99275.75
2023-11-30T10:28:33.305Z,99275.84
2023-11-30T10:31:04.176Z,99266.72
2023-11-30T10:33:38.445Z,99268.69
2023-11-30T10:36:09.052Z,99266.25
2023-11-30T10:38:41.095Z,99264.72
2023-11-30T10:41:14.722Z,99261.50
2023-11-30T10:43:49.700Z,99274.34
2023-11-30T10:46:17.987Z,99270.06
2023-11-30T10:48:45.954Z,99274.25
2023-11-30T10:51:14.851Z,99271.72
2023-11-30T10:54:05.989Z,99271.72
2023-11-30T10:56:34.821Z,99270.13
2023-11-30T10:59:03.550Z,99278.69
2023-11-30T11:01:36.722Z,99274.50
2023-11-30T11:04:08.859Z,99275.34
2023-11-30T11:06:37.719Z,99272.84
2023-11-30T11:09:09.925Z,99281.38
2023-11-30T11:11:41.290Z,99265.28
2023-11-30T11:14:09.287Z,99274.59
2023-11-30T11:16:42.467Z,99267.72
2023-11-30T11:19:11.447Z,99272.72
2023-11-30T11:21:40.777Z,99270.06
2023-11-30T11:24:10.525Z,99271.59
2023-11-30T11:26:45.997Z,99273.19
2023-11-30T11:29:21.245Z,99270.59
2023-11-30T11:31:57.965Z,99268.91
2023-11-30T11:34:25.882Z,99270.69
2023-11-30T11:36:53.862Z,99264.09
2023-11-30T11:39:23.714Z,99268.38
2023-11-30T11:41:51.829Z,99259.91
2023-11-30T11:44:21.412Z,99285.06
2023-11-30T11:46:50.559Z,99269.66
2023-11-30T11:49:18.405Z,99260.41
2023-11-30T11:51:47.655Z,99258.75
2023-11-30T11:54:24.761Z,99257.97
2023-11-30T11:56:53.993Z,99267.31
2023-11-30T11:59:23.735Z,99258.81
2023-11-30T12:01:52.346Z,99263.84
2023-11-30T12:04:30.709Z,99255.34
2023-11-30T12:06:59.122Z,99253.63
2023-11-30T12:09:28.587Z,99262.94
2023-11-30T12:11:57.357Z,99257.84
2023-11-30T12:14:25.474Z,99256.97
2023-11-30T12:16:53.648Z,99257.91
2023-11-30T12:19:21.550Z,99255.44
2023-11-30T12:21:49.667Z,99258.88
2023-11-30T12:24:17.531Z,99247.97
2023-11-30T12:26:47.247Z,99249.78
2023-11-30T12:29:15.157Z,99247.28
2023-11-30T12:31:43.056Z,99245.59
2023-11-30T12:34:11.377Z,99244.75
2023-11-30T12:36:39.390Z,99246.41
2023-11-30T12:39:07.363Z,99241.31
2023-11-30T12:41:35.266Z,99235.41
2023-11-30T12:44:06.793Z,99241.38
2023-11-30T12:46:34.786Z,99237.19
2023-11-30T12:49:02.970Z,99243.06
2023-11-30T12:51:31.145Z,99232.84
2023-11-30T12:53:59.217Z,99246.44
2023-11-30T12:56:28.922Z,99238.72
2023-11-30T12:58:57.808Z,99239.56
2023-11-30T13:01:27.545Z,99237.84
2023-11-30T13:03:55.712Z,99237.00
2023-11-30T13:06:23.833Z,99232.00
2023-11-30T13:08:51.826Z,99232.06
2023-11-30T13:11:19.791Z,99225.34
2023-11-30T13:13:48.536Z,99227.94
2023-11-30T13:16:16.410Z,99222.91
2023-11-30T13:18:45.808Z,99224.59
2023-11-30T13:21:13.812Z,99229.63
2023-11-30T13:23:41.768Z,99228.72
2023-11-30T13:26:09.763Z,99224.44
2023-11-30T13:28:42.971Z,99221.13
2023-11-30T13:31:15.848Z,99226.19
2023-11-30T13:33:45.853Z,99226.19
2023-11-30T13:36:14.149Z,99229.56
2023-11-30T13:38:43.059Z,99222.72
2023-11-30T13:41:11.002Z,99215.09
2023-11-30T13:43:39.178Z,99214.22
2023-11-30T13:46:08.481Z,99215.06
2023-11-30T13:48:36.331Z,99215.06
2023-11-30T13:51:05.882Z,99215.06
2023-11-30T13:53:34.282Z,99222.72
2023-11-30T13:56:03.452Z,99210.84
2023-11-30T13:58:31.638Z,99209.94
2023-11-30T14:01:01.068Z,99216.75
2023-11-30T14:03:30.055Z,99210.81
2023-11-30T14:05:58.302Z,99208.25
2023-11-30T14:08:29.389Z,99202.22
2023-11-30T14:10:57.232Z,99206.34
2023-11-30T14:13:25.061Z,99194.41
2023-11-30T14:15:53.071Z,99202.78
2023-11-30T14:18:21.187Z,99202.69
2023-11-30T14:20:49.386Z,99203.47
2023-11-30T14:23:17.294Z,99204.28
2023-11-30T14:25:46.842Z,99207.59
2023-11-30T14:28:15.724Z,99210.09
2023-11-30T14:30:47.831Z,99209.19
2023-11-30T14:33:15.906Z,99210.03
2023-11-30T14:35:44.004Z,99214.19
2023-11-30T14:38:11.931Z,99213.25
2023-11-30T14:40:40.055Z,99207.34
2023-11-30T14:43:09.600Z,99206.50
2023-11-30T14:45:37.835Z,99209.88
2023-11-30T14:48:09.618Z,99210.72
2023-11-30T14:50:37.492Z,99212.38
2023-11-30T14:53:06.004Z,99212.41
2023-11-30T14:55:34.674Z,99215.78
2023-11-30T14:58:02.721Z,99214.03
2023-11-30T15:00:32.876Z,99219.09
2023-11-30T15:03:05.816Z,99201.19
2023-11-30T15:05:33.816Z,99210.59
2023-11-30T15:08:01.772Z,99202.13
2023-11-30T15:10:31.841Z,99207.19
2023-11-30T15:12:59.887Z,99214.81
2023-11-30T15:15:27.836Z,99203.78
2023-11-30T15:17:57.325Z,99209.63
2023-11-30T15:20:25.475Z,99207.09
2023-11-30T15:22:53.363Z,99201.97
2023-11-30T15:25:22.038Z,99204.50
2023-11-30T15:27:50.982Z,99206.97
2023-11-30T15:30:19.965Z,99210.34
2023-11-30T15:32:48.315Z,99202.63
2023-11-30T15:35:17.590Z,99206.03
2023-11-30T15:37:50.066Z,99209.47
2023-11-30T15:40:19.222Z,99208.66
2023-11-30T15:42:47.808Z,99201.91
2023-11-30T15:45:18.698Z,99209.56
2023-11-30T15:47:49.312Z,99206.97
2023-11-30T15:50:18.789Z,99208.72
2023-11-30T15:52:48.429Z,99196.84
2023-11-30T15:55:16.518Z,99197.75
2023-11-30T15:57:45.937Z,99197.75
2023-11-30T16:00:15.178Z,99199.50
2023-11-30T16:02:45.157Z,99196.06
2023-11-30T16:05:15.583Z,99198.59
2023-11-30T16:07:45.645Z,99203.66
2023-11-30T16:10:14.021Z,99199.44
2023-11-30T16:12:42.018Z,99198.53
2023-11-30T16:15:12.234Z,99199.31
2023-11-30T16:17:40.526Z,99205.22
2023-11-30T16:20:12.081Z,99205.28
2023-11-30T16:22:40.367Z,99198.53
2023-11-30T16:25:12.282Z,99206.19
2023-11-30T16:27:42.833Z,99203.66
2023-11-30T16:30:14.872Z,99207.16
2023-11-30T16:32:43.132Z,99202.94
2023-11-30T16:35:11.531Z,99203.00
2023-11-30T16:37:39.559Z,99208.97
2023-11-30T16:40:11.165Z,99206.44
2023-11-30T16:42:39.325Z,99209.81
2023-11-30T16:45:08.414Z,99206.38
2023-11-30T16:47:36.297Z,99203.03
2023-11-30T16:50:05.406Z,99197.97
2023-11-30T16:52:33.452Z,99203.09
2023-11-30T16:55:01.825Z,99205.66
2023-11-30T16:57:33.461Z,99200.56
2023-11-30T17:00:03.917Z,99207.28
2023-11-30T17:02:32.476Z,99203.06
2023-11-30T17:05:00.589Z,99199.63
2023-11-30T17:07:28.692Z,99200.41
2023-11-30T17:09:56.663Z,99199.59
2023-11-30T17:12:24.549Z,99197.09
2023-11-30T17:14:53.687Z,99194.56
2023-11-30T17:17:21.657Z,99197.88
2023-11-30T17:19:49.557Z,99194.44
2023-11-30T17:22:17.523Z,99187.78
2023-11-30T17:24:45.429Z,99188.75
2023-11-30T17:27:14.054Z,99188.81
2023-11-30T17:29:42.824Z,99195.56
2023-11-30T17:32:12.320Z,99194.63
2023-11-30T17:34:40.654Z,99183.53
2023-11-30T17:37:09.833Z,99187.75
2023-11-30T17:39:38.041Z,99194.53
2023-11-30T17:42:06.767Z,99195.34
2023-11-30T17:44:34.697Z,99187.69
2023-11-30T17:47:03.712Z,99185.16
2023-11-30T17:49:34.410Z,99197.03
2023-11-30T17:52:02.725Z,99192.78
2023-11-30T17:54:30.673Z,99202.94
2023-11-30T17:57:00.016Z,99196.28
2023-11-30T17:59:28.144Z,99191.28
2023-11-30T18:01:56.089Z,99191.34
2023-11-30T18:04:24.392Z,99188.06
2023-11-30T18:06:53.785Z,99178.00
2023-11-30T18:09:23.568Z,99182.28
2023-11-30T18:11:52.487Z,99174.56
2023-11-30T18:14:20.598Z,99173.75
2023-11-30T18:16:48.634Z,99174.53
2023-11-30T18:19:16.575Z,99182.22
2023-11-30T18:21:44.795Z,99180.56
2023-11-30T18:24:14.061Z,99176.34
2023-11-30T18:26:42.098Z,99178.91
2023-11-30T18:29:10.854Z,99186.50
2023-11-30T18:31:38.853Z,99183.13
2023-11-30T18:34:07.993Z,99180.53
2023-11-30T18:36:35.998Z,99181.31
2023-11-30T18:39:04.086Z,99184.63
2023-11-30T18:41:33.610Z,99182.91
2023-11-30T18:44:02.435Z,99180.38
2023-11-30T18:46:30.461Z,99172.03
2023-11-30T18:48:58.614Z,99173.75
2023-11-30T18:51:29.959Z,99169.50
2023-11-30T18:53:58.437Z,99172.13
2023-11-30T18:56:29.761Z,99171.28
2023-11-30T18:59:00.841Z,99170.44
2023-11-30T19:01:30.635Z,99175.56
2023-11-30T19:03:59.139Z,99167.16
2023-11-30T19:06:27.107Z,99170.59
2023-11-30T19:08:54.959Z,99161.25
2023-11-30T19:11:23.086Z,99172.19
2023-11-30T19:13:51.123Z,99170.44
2023-11-30T19:16:22.053Z,99169.50
2023-11-30T19:18:51.259Z,99161.84
2023-11-30T19:21:19.699Z,99165.25
2023-11-30T19:23:47.614Z,99168.59
2023-11-30T19:26:16.989Z,99157.66
2023-11-30T19:28:45.268Z,99152.66
2023-11-30T19:31:13.246Z,99142.47
2023-11-30T19:33:42.563Z,99135.59
2023-11-30T19:36:12.112Z,99138.13
2023-11-30T19:38:40.136Z,99134.81
2023-11-30T19:41:08.679Z,99130.63
2023-11-30T19:43:36.739Z,99134.03
2023-11-30T19:46:05.229Z,99128.09
2023-11-30T19:48:34.453Z,99128.94
2023-11-30T19:51:05.773Z,99136.59
2023-11-30T19:53:35.066Z,99129.88
2023-11-30T19:56:02.925Z,99126.53
2023-11-30T19:58:31.271Z,99117.22
2023-11-30T20:00:59.541Z,99126.53
2023-11-30T20:03:27.483Z,99129.91
2023-11-30T20:05:55.471Z,99126.56
2023-11-30T20:08:24.701Z,99124.91
2023-11-30T20:10:53.441Z,99124.91
2023-11-30T20:13:21.600Z,99127.53
2023-11-30T20:15:49.530Z,99132.63
2023-11-30T20:18:17.463Z,99130.94
2023-11-30T20:20:46.730Z,99138.66
2023-11-30T20:23:14.648Z,99137.81
2023-11-30T20:25:44.022Z,99135.25
2023-11-30T20:28:11.977Z,99133.63
2023-11-30T20:30:40.242Z,99133.63
2023-11-30T20:33:09.788Z,99135.34
2023-11-30T20:35:37.710Z,99142.97
2023-11-30T20:38:05.792Z,99141.22
2023-11-30T20:40:33.757Z,99131.03
2023-11-30T20:43:05.579Z,99142.13
2023-11-30T20:45:33.526Z,99143.75
2023-11-30T20:48:01.503Z,99131.00
2023-11-30T20:50:29.477Z,99129.25
2023-11-30T20:52:57.521Z,99132.56
2023-11-30T20:55:25.497Z,99135.09
2023-11-30T20:57:53.540Z,99133.47
2023-11-30T21:00:23.182Z,99127.56
2023-11-30T21:02:51.711Z,99124.22
2023-11-30T21:05:20.365Z,99119.19
2023-11-30T21:07:48.342Z,99117.53
2023-11-30T21:10:16.476Z,99109.91
2023-11-30T21:12:44.697Z,99106.53
2023-11-30T21:15:13.170Z,99102.25
2023-11-30T21:17:42.622Z,99096.34
2023-11-30T21:20:09.863Z,99108.13
2023-11-30T21:22:37.868Z,99106.44
2023-11-30T21:25:06.391Z,99114.03
2023-11-30T21:27:34.730Z,99114.88
2023-11-30T21:30:02.849Z,99117.47
2023-11-30T21:32:31.401Z,99114.97
2023-11-30T21:35:00.867Z,99108.25
2023-11-30T21:37:29.688Z,99104.88
2023-11-30T21:39:57.717Z,99105.69
2023-11-30T21:42:26.007Z,99108.22
2023-11-30T21:44:54.028Z,99104.78
2023-11-30T21:47:22.329Z,99099.72
2023-11-30T21:49:50.606Z,99104.78
2023-11-30T21:52:20.081Z,99109.00
2023-11-30T21:54:48.169Z,99104.75
2023-11-30T21:57:16.300Z,99104.75
2023-11-30T21:59:44.846Z,99114.88
2023-11-30T22:02:13.352Z,99103.84
2023-11-30T22:04:41.675Z,99104.66
2023-11-30T22:07:10.175Z,99103.75
2023-11-30T22:09:39.960Z,99103.66
2023-11-30T22:12:09.556Z,99107.03
2023-11-30T22:14:37.988Z,99118.88
2023-11-30T22:17:06.457Z,99118.09
2023-11-30T22:19:34.757Z,99120.69
2023-11-30T22:22:03.671Z,99113.09
2023-11-30T22:24:32.069Z,99109.72
2023-11-30T22:27:01.518Z,99114.75
2023-11-30T22:29:31.768Z,99121.50
2023-11-30T22:32:00.046Z,99120.59
2023-11-30T22:34:28.428Z,99126.50
2023-11-30T22:36:56.757Z,99130.75
2023-11-30T22:39:28.010Z,99134.13
2023-11-30T22:41:56.351Z,99135.00
2023-11-30T22:44:26.040Z,99135.91
2023-11-30T22:46:54.161Z,99136.78
2023-11-30T22:49:22.611Z,99142.75
2023-11-30T22:51:50.872Z,99139.38
2023-11-30T22:54:19.555Z,99126.72
2023-11-30T22:56:47.530Z,99125.88
2023-11-30T22:59:16.868Z,99130.94
2023-11-30T23:01:46.594Z,99131.75
2023-11-30T23:04:16.052Z,99136.00
2023-11-30T23:06:44.346Z,99135.16
2023-11-30T23:09:12.511Z,99131.63
2023-11-30T23:11:40.512Z,99131.59
2023-11-30T23:14:09.474Z,99123.88
2023-11-30T23:16:38.200Z,99123.03
2023-11-30T23:19:08.876Z,99129.72
2023-11-30T23:21:36.952Z,99127.16
2023-11-30T23:24:05.752Z,99122.94
2023-11-30T23:26:33.894Z,99123.72
2023-11-30T23:29:01.985Z,99123.72
2023-11-30T23:31:30.424Z,99119.44
2023-11-30T23:33:58.644Z,99121.97
2023-11-30T23:36:28.182Z,99120.28
2023-11-30T23:38:56.243Z,99116.00
2023-11-30T23:41:24.512Z,99116.75
2023-11-30T23:43:52.886Z,99116.75
2023-11-30T23:46:21.122Z,99111.66
2023-11-30T23:48:49.279Z,99111.69
2023-11-30T23:51:17.358Z,99106.63
2023-11-30T23:53:46.838Z,99109.16
2023-11-30T23:56:14.880Z,99103.09
2023-11-30T23:58:43.023Z,99104.69
